XNO Airport (North Af Aux) Information

FAA: XNO - ICAO: KXNO

XNO Airport Location

State South Carolina
County Orangeburg
City North
Latitude 33-36-34.1674N
Longitude 081-04-52.2382W
Elevation 321ft

KXNO Airport METARs

METAR KXNO 071855Z AUTO 21008KT 10SM FEW022 SCT150 23/23 A3025 RMK AO2 SLP245 T02340234 $
Altimeter 30.25"
Temperature 23.4°C (74.1°F)
Wind 210° at 8KT
Clouds few at 2,200ft scattered at 15,000ft
Visibility 10.0mi
Time observed: 2022-12-07T18:55:00Z

XNO Airport Details

Status Operational
Activation April 1943
Ownership Military - Air Force
Usage Private
Chart CHARLOTTE
ATC on-site No
Beacon schedule N/A
Beacon color clear green

XNO Airport Contacts

Owner USAF
Owner address SHAW AFB, SUMTER, SC 29152
Owner phone N/A
Manager CHRIS MELTON, DIRECTOR OF ENG
Manager address 4000 HWY 9 EAST, LITTLE RIVER, SC 29566
Manager phone 843-390-8263

XNO Airport (North Af Aux) Radio Frequencies

XNO (Airport) Radio Frequencies

UNICOM N/A
Common traffic advisory frequency (CTAF) N/A